sensor_id;sensor_type;location;lat;lon;timestamp;P1;durP1;ratioP1;P2;durP2;ratioP2
15358;SDS011;7779;49.596;11.070;2023-03-31T00:01:35;2.43;;;0.90;;
15358;SDS011;7779;49.596;11.070;2023-03-31T00:04:06;1.67;;;0.80;;
15358;SDS011;7779;49.596;11.070;2023-03-31T00:06:36;2.60;;;0.90;;
15358;SDS011;7779;49.596;11.070;2023-03-31T00:09:09;3.47;;;0.90;;
15358;SDS011;7779;49.596;11.070;2023-03-31T00:11:48;2.40;;;1.00;;
15358;SDS011;7779;49.596;11.070;2023-03-31T00:14:16;2.37;;;0.97;;
15358;SDS011;7779;49.596;11.070;2023-03-31T00:16:44;1.97;;;0.97;;
15358;SDS011;7779;49.596;11.070;2023-03-31T00:19:11;1.00;;;0.57;;
15358;SDS011;7779;49.596;11.070;2023-03-31T00:21:45;1.73;;;0.90;;
15358;SDS011;7779;49.596;11.070;2023-03-31T00:24:15;3.77;;;0.90;;
15358;SDS011;7779;49.596;11.070;2023-03-31T00:26:42;2.90;;;0.90;;
15358;SDS011;7779;49.596;11.070;2023-03-31T00:29:10;2.13;;;1.03;;
15358;SDS011;7779;49.596;11.070;2023-03-31T00:31:38;2.13;;;0.70;;
15358;SDS011;7779;49.596;11.070;2023-03-31T00:34:04;2.57;;;0.90;;
15358;SDS011;7779;49.596;11.070;2023-03-31T00:36:32;2.07;;;0.80;;
15358;SDS011;7779;49.596;11.070;2023-03-31T00:39:00;1.20;;;0.90;;
15358;SDS011;7779;49.596;11.070;2023-03-31T00:41:32;2.50;;;0.83;;
15358;SDS011;7779;49.596;11.070;2023-03-31T00:49:38;1.30;;;0.90;;
15358;SDS011;7779;49.596;11.070;2023-03-31T00:52:16;1.40;;;0.80;;
15358;SDS011;7779;49.596;11.070;2023-03-31T00:54:59;3.07;;;1.00;;
15358;SDS011;7779;49.596;11.070;2023-03-31T00:57:38;1.67;;;0.83;;
15358;SDS011;7779;49.596;11.070;2023-03-31T01:00:08;2.20;;;0.80;;
15358;SDS011;7779;49.596;11.070;2023-03-31T01:02:44;2.93;;;1.00;;
15358;SDS011;7779;49.596;11.070;2023-03-31T01:05:23;2.13;;;0.90;;
15358;SDS011;7779;49.596;11.070;2023-03-31T01:07:54;1.57;;;1.00;;
15358;SDS011;7779;49.596;11.070;2023-03-31T01:10:23;1.40;;;0.80;;
15358;SDS011;7779;49.596;11.070;2023-03-31T01:12:51;2.43;;;0.80;;
15358;SDS011;7779;49.596;11.070;2023-03-31T01:15:19;2.00;;;0.80;;
15358;SDS011;7779;49.596;11.070;2023-03-31T01:17:46;1.63;;;1.03;;
15358;SDS011;7779;49.596;11.070;2023-03-31T01:27:16;0.87;;;0.80;;
15358;SDS011;7779;49.596;11.070;2023-03-31T01:30:11;1.07;;;0.83;;
15358;SDS011;7779;49.596;11.070;2023-03-31T01:33:22;2.87;;;0.70;;
15358;SDS011;7779;49.596;11.070;2023-03-31T01:36:45;0.87;;;0.80;;
15358;SDS011;7779;49.596;11.070;2023-03-31T01:39:49;1.60;;;0.80;;
15358;SDS011;7779;49.596;11.070;2023-03-31T01:48:11;1.83;;;0.70;;
15358;SDS011;7779;49.596;11.070;2023-03-31T01:51:18;2.37;;;1.00;;
15358;SDS011;7779;49.596;11.070;2023-03-31T01:53:50;1.83;;;0.90;;
15358;SDS011;7779;49.596;11.070;2023-03-31T01:56:33;2.97;;;0.90;;
15358;SDS011;7779;49.596;11.070;2023-03-31T02:01:57;1.57;;;0.90;;
15358;SDS011;7779;49.596;11.070;2023-03-31T02:04:35;1.37;;;1.00;;
15358;SDS011;7779;49.596;11.070;2023-03-31T02:07:13;1.47;;;0.83;;
15358;SDS011;7779;49.596;11.070;2023-03-31T02:09:48;1.53;;;0.90;;
15358;SDS011;7779;49.596;11.070;2023-03-31T02:12:23;2.80;;;1.00;;
15358;SDS011;7779;49.596;11.070;2023-03-31T02:14:53;1.43;;;1.00;;
15358;SDS011;7779;49.596;11.070;2023-03-31T02:17:23;1.00;;;0.80;;
15358;SDS011;7779;49.596;11.070;2023-03-31T02:19:57;1.70;;;0.90;;
15358;SDS011;7779;49.596;11.070;2023-03-31T02:22:30;1.53;;;0.80;;
15358;SDS011;7779;49.596;11.070;2023-03-31T02:25:01;2.10;;;0.90;;
15358;SDS011;7779;49.596;11.070;2023-03-31T02:27:32;1.63;;;1.00;;
15358;SDS011;7779;49.596;11.070;2023-03-31T02:30:05;1.93;;;1.10;;
15358;SDS011;7779;49.596;11.070;2023-03-31T02:35:06;2.57;;;1.07;;
15358;SDS011;7779;49.596;11.070;2023-03-31T02:37:39;1.87;;;0.97;;
15358;SDS011;7779;49.596;11.070;2023-03-31T02:40:09;1.60;;;0.77;;
15358;SDS011;7779;49.596;11.070;2023-03-31T02:42:41;0.77;;;0.70;;
15358;SDS011;7779;49.596;11.070;2023-03-31T02:48:08;1.60;;;0.90;;
15358;SDS011;7779;49.596;11.070;2023-03-31T02:50:55;1.47;;;0.80;;
15358;SDS011;7779;49.596;11.070;2023-03-31T02:53:47;1.53;;;0.83;;
15358;SDS011;7779;49.596;11.070;2023-03-31T02:59:34;1.40;;;0.80;;
15358;SDS011;7779;49.596;11.070;2023-03-31T03:02:22;3.00;;;1.13;;
15358;SDS011;7779;49.596;11.070;2023-03-31T03:08:34;2.43;;;1.30;;
15358;SDS011;7779;49.596;11.070;2023-03-31T03:11:45;4.10;;;1.13;;
15358;SDS011;7779;49.596;11.070;2023-03-31T03:17:19;1.97;;;1.17;;
15358;SDS011;7779;49.596;11.070;2023-03-31T03:19:58;1.57;;;1.03;;
15358;SDS011;7779;49.596;11.070;2023-03-31T03:22:31;2.40;;;1.20;;
15358;SDS011;7779;49.596;11.070;2023-03-31T03:24:57;2.57;;;1.10;;
15358;SDS011;7779;49.596;11.070;2023-03-31T03:27:23;1.40;;;1.00;;
15358;SDS011;7779;49.596;11.070;2023-03-31T03:29:48;2.97;;;1.30;;
15358;SDS011;7779;49.596;11.070;2023-03-31T03:32:14;3.13;;;1.10;;
15358;SDS011;7779;49.596;11.070;2023-03-31T03:34:40;2.53;;;1.30;;
15358;SDS011;7779;49.596;11.070;2023-03-31T03:37:05;3.00;;;1.10;;
15358;SDS011;7779;49.596;11.070;2023-03-31T03:39:31;2.23;;;1.27;;
15358;SDS011;7779;49.596;11.070;2023-03-31T03:41:57;3.03;;;1.37;;
15358;SDS011;7779;49.596;11.070;2023-03-31T03:44:23;2.83;;;1.63;;
15358;SDS011;7779;49.596;11.070;2023-03-31T03:46:48;3.63;;;1.57;;
15358;SDS011;7779;49.596;11.070;2023-03-31T03:49:14;2.27;;;1.13;;
15358;SDS011;7779;49.596;11.070;2023-03-31T03:51:40;1.90;;;1.37;;
15358;SDS011;7779;49.596;11.070;2023-03-31T03:54:06;2.57;;;1.40;;
15358;SDS011;7779;49.596;11.070;2023-03-31T03:56:31;3.10;;;1.70;;
15358;SDS011;7779;49.596;11.070;2023-03-31T03:58:57;2.57;;;1.30;;
15358;SDS011;7779;49.596;11.070;2023-03-31T04:01:23;4.47;;;1.40;;
15358;SDS011;7779;49.596;11.070;2023-03-31T04:03:49;3.17;;;1.30;;
15358;SDS011;7779;49.596;11.070;2023-03-31T04:06:15;2.37;;;1.40;;
15358;SDS011;7779;49.596;11.070;2023-03-31T04:08:41;2.57;;;1.13;;
15358;SDS011;7779;49.596;11.070;2023-03-31T04:11:16;2.10;;;1.20;;
15358;SDS011;7779;49.596;11.070;2023-03-31T04:13:43;2.53;;;1.23;;
15358;SDS011;7779;49.596;11.070;2023-03-31T04:16:09;1.10;;;0.90;;
15358;SDS011;7779;49.596;11.070;2023-03-31T04:18:35;3.27;;;1.47;;
15358;SDS011;7779;49.596;11.070;2023-03-31T04:21:06;2.13;;;1.23;;
15358;SDS011;7779;49.596;11.070;2023-03-31T04:23:36;2.83;;;1.40;;
15358;SDS011;7779;49.596;11.070;2023-03-31T04:26:10;3.23;;;1.33;;
15358;SDS011;7779;49.596;11.070;2023-03-31T04:28:41;4.60;;;1.37;;
15358;SDS011;7779;49.596;11.070;2023-03-31T04:31:14;2.43;;;1.37;;
15358;SDS011;7779;49.596;11.070;2023-03-31T04:33:58;2.70;;;1.00;;
15358;SDS011;7779;49.596;11.070;2023-03-31T04:36:26;1.77;;;0.97;;
15358;SDS011;7779;49.596;11.070;2023-03-31T04:38:55;2.20;;;1.10;;
15358;SDS011;7779;49.596;11.070;2023-03-31T04:41:22;1.60;;;0.90;;
15358;SDS011;7779;49.596;11.070;2023-03-31T04:43:51;2.80;;;1.10;;
15358;SDS011;7779;49.596;11.070;2023-03-31T04:46:17;2.43;;;1.20;;
15358;SDS011;7779;49.596;11.070;2023-03-31T04:48:43;3.23;;;1.20;;
15358;SDS011;7779;49.596;11.070;2023-03-31T04:51:09;3.40;;;1.30;;
15358;SDS011;7779;49.596;11.070;2023-03-31T04:53:35;1.70;;;1.10;;
15358;SDS011;7779;49.596;11.070;2023-03-31T04:56:01;3.20;;;1.20;;
15358;SDS011;7779;49.596;11.070;2023-03-31T04:58:27;2.90;;;1.00;;
15358;SDS011;7779;49.596;11.070;2023-03-31T05:00:53;3.57;;;1.13;;
15358;SDS011;7779;49.596;11.070;2023-03-31T05:03:19;3.90;;;1.10;;
15358;SDS011;7779;49.596;11.070;2023-03-31T05:05:45;1.97;;;0.90;;
15358;SDS011;7779;49.596;11.070;2023-03-31T05:08:11;2.20;;;1.17;;
15358;SDS011;7779;49.596;11.070;2023-03-31T05:10:37;1.33;;;1.00;;
15358;SDS011;7779;49.596;11.070;2023-03-31T05:13:02;2.03;;;1.00;;
15358;SDS011;7779;49.596;11.070;2023-03-31T05:15:28;2.33;;;1.20;;
15358;SDS011;7779;49.596;11.070;2023-03-31T05:17:54;3.33;;;1.30;;
15358;SDS011;7779;49.596;11.070;2023-03-31T05:20:21;2.07;;;1.17;;
15358;SDS011;7779;49.596;11.070;2023-03-31T05:22:48;6.07;;;1.47;;
15358;SDS011;7779;49.596;11.070;2023-03-31T05:25:14;2.90;;;1.23;;
15358;SDS011;7779;49.596;11.070;2023-03-31T05:27:42;3.03;;;1.40;;
15358;SDS011;7779;49.596;11.070;2023-03-31T05:30:11;1.73;;;1.20;;
15358;SDS011;7779;49.596;11.070;2023-03-31T05:32:38;7.97;;;4.30;;
15358;SDS011;7779;49.596;11.070;2023-03-31T05:35:04;9.70;;;4.03;;
15358;SDS011;7779;49.596;11.070;2023-03-31T05:37:31;6.17;;;2.53;;
15358;SDS011;7779;49.596;11.070;2023-03-31T05:39:57;5.27;;;2.80;;
15358;SDS011;7779;49.596;11.070;2023-03-31T05:42:23;4.17;;;1.90;;
15358;SDS011;7779;49.596;11.070;2023-03-31T05:44:49;6.70;;;2.57;;
15358;SDS011;7779;49.596;11.070;2023-03-31T05:47:15;5.87;;;2.23;;
15358;SDS011;7779;49.596;11.070;2023-03-31T05:49:41;4.73;;;2.17;;
15358;SDS011;7779;49.596;11.070;2023-03-31T05:52:07;4.60;;;1.73;;
15358;SDS011;7779;49.596;11.070;2023-03-31T05:54:34;2.70;;;1.80;;
15358;SDS011;7779;49.596;11.070;2023-03-31T05:57:00;4.67;;;2.07;;
15358;SDS011;7779;49.596;11.070;2023-03-31T05:59:26;3.17;;;1.53;;
15358;SDS011;7779;49.596;11.070;2023-03-31T06:01:51;4.00;;;1.53;;
15358;SDS011;7779;49.596;11.070;2023-03-31T06:04:17;3.33;;;1.80;;
15358;SDS011;7779;49.596;11.070;2023-03-31T06:06:43;3.23;;;1.23;;
15358;SDS011;7779;49.596;11.070;2023-03-31T06:09:10;2.63;;;1.30;;
15358;SDS011;7779;49.596;11.070;2023-03-31T06:11:36;3.70;;;1.13;;
15358;SDS011;7779;49.596;11.070;2023-03-31T06:14:03;2.40;;;1.30;;
15358;SDS011;7779;49.596;11.070;2023-03-31T06:16:29;3.93;;;1.63;;
15358;SDS011;7779;49.596;11.070;2023-03-31T06:18:55;3.17;;;1.40;;
15358;SDS011;7779;49.596;11.070;2023-03-31T06:21:21;3.43;;;1.77;;
15358;SDS011;7779;49.596;11.070;2023-03-31T06:23:47;2.30;;;1.40;;
15358;SDS011;7779;49.596;11.070;2023-03-31T06:26:14;1.97;;;1.53;;
15358;SDS011;7779;49.596;11.070;2023-03-31T06:28:42;5.13;;;1.57;;
15358;SDS011;7779;49.596;11.070;2023-03-31T06:31:11;3.30;;;1.60;;
15358;SDS011;7779;49.596;11.070;2023-03-31T06:33:40;2.43;;;1.60;;
15358;SDS011;7779;49.596;11.070;2023-03-31T06:36:08;3.83;;;1.73;;
15358;SDS011;7779;49.596;11.070;2023-03-31T06:38:36;4.93;;;1.63;;
15358;SDS011;7779;49.596;11.070;2023-03-31T06:41:02;2.17;;;1.63;;
15358;SDS011;7779;49.596;11.070;2023-03-31T06:43:30;2.00;;;1.47;;
15358;SDS011;7779;49.596;11.070;2023-03-31T06:45:56;3.97;;;2.00;;
15358;SDS011;7779;49.596;11.070;2023-03-31T06:48:22;3.73;;;1.73;;
15358;SDS011;7779;49.596;11.070;2023-03-31T06:50:49;4.50;;;1.97;;
15358;SDS011;7779;49.596;11.070;2023-03-31T06:53:16;2.80;;;1.60;;
15358;SDS011;7779;49.596;11.070;2023-03-31T06:55:42;3.23;;;1.57;;
15358;SDS011;7779;49.596;11.070;2023-03-31T06:58:08;3.73;;;1.90;;
15358;SDS011;7779;49.596;11.070;2023-03-31T07:00:35;5.23;;;2.13;;
15358;SDS011;7779;49.596;11.070;2023-03-31T07:03:02;3.97;;;1.73;;
15358;SDS011;7779;49.596;11.070;2023-03-31T07:05:29;3.27;;;1.97;;
15358;SDS011;7779;49.596;11.070;2023-03-31T07:07:56;2.70;;;1.80;;
15358;SDS011;7779;49.596;11.070;2023-03-31T07:10:24;2.87;;;1.73;;
15358;SDS011;7779;49.596;11.070;2023-03-31T07:12:52;3.73;;;1.50;;
15358;SDS011;7779;49.596;11.070;2023-03-31T07:15:18;1.93;;;1.40;;
15358;SDS011;7779;49.596;11.070;2023-03-31T07:17:44;3.67;;;1.50;;
15358;SDS011;7779;49.596;11.070;2023-03-31T07:20:11;3.67;;;1.70;;
15358;SDS011;7779;49.596;11.070;2023-03-31T07:22:39;3.33;;;1.47;;
15358;SDS011;7779;49.596;11.070;2023-03-31T07:25:07;3.60;;;1.80;;
15358;SDS011;7779;49.596;11.070;2023-03-31T07:27:34;2.20;;;1.90;;
15358;SDS011;7779;49.596;11.070;2023-03-31T07:30:00;2.57;;;1.70;;
15358;SDS011;7779;49.596;11.070;2023-03-31T07:32:28;2.87;;;2.03;;
15358;SDS011;7779;49.596;11.070;2023-03-31T07:34:53;4.63;;;1.97;;
15358;SDS011;7779;49.596;11.070;2023-03-31T07:37:19;4.13;;;1.97;;
15358;SDS011;7779;49.596;11.070;2023-03-31T07:39:45;3.47;;;2.03;;
15358;SDS011;7779;49.596;11.070;2023-03-31T07:42:11;4.03;;;1.77;;
15358;SDS011;7779;49.596;11.070;2023-03-31T07:44:36;3.30;;;1.70;;
15358;SDS011;7779;49.596;11.070;2023-03-31T07:47:02;5.13;;;2.13;;
15358;SDS011;7779;49.596;11.070;2023-03-31T07:49:31;6.50;;;1.90;;
15358;SDS011;7779;49.596;11.070;2023-03-31T07:51:58;3.57;;;2.13;;
15358;SDS011;7779;49.596;11.070;2023-03-31T07:54:24;2.67;;;1.77;;
15358;SDS011;7779;49.596;11.070;2023-03-31T07:56:50;3.57;;;1.70;;
15358;SDS011;7779;49.596;11.070;2023-03-31T07:59:16;4.43;;;2.30;;
15358;SDS011;7779;49.596;11.070;2023-03-31T08:01:42;2.70;;;2.20;;
15358;SDS011;7779;49.596;11.070;2023-03-31T08:04:08;4.60;;;2.40;;
15358;SDS011;7779;49.596;11.070;2023-03-31T08:06:36;3.40;;;1.80;;
15358;SDS011;7779;49.596;11.070;2023-03-31T08:09:02;4.17;;;2.13;;
15358;SDS011;7779;49.596;11.070;2023-03-31T08:11:31;2.97;;;2.30;;
15358;SDS011;7779;49.596;11.070;2023-03-31T08:13:57;5.57;;;2.60;;
15358;SDS011;7779;49.596;11.070;2023-03-31T08:16:22;3.37;;;2.30;;
15358;SDS011;7779;49.596;11.070;2023-03-31T08:18:48;3.70;;;2.20;;
15358;SDS011;7779;49.596;11.070;2023-03-31T08:21:14;5.80;;;3.13;;
15358;SDS011;7779;49.596;11.070;2023-03-31T08:23:40;6.90;;;5.13;;
15358;SDS011;7779;49.596;11.070;2023-03-31T08:26:13;12.53;;;7.60;;
15358;SDS011;7779;49.596;11.070;2023-03-31T08:28:42;8.07;;;4.60;;
15358;SDS011;7779;49.596;11.070;2023-03-31T08:31:08;7.10;;;4.07;;
15358;SDS011;7779;49.596;11.070;2023-03-31T08:33:35;5.57;;;3.70;;
15358;SDS011;7779;49.596;11.070;2023-03-31T08:36:05;5.93;;;3.77;;
15358;SDS011;7779;49.596;11.070;2023-03-31T08:38:37;6.83;;;4.10;;
15358;SDS011;7779;49.596;11.070;2023-03-31T08:41:30;4.93;;;3.53;;
15358;SDS011;7779;49.596;11.070;2023-03-31T08:44:09;6.23;;;4.50;;
15358;SDS011;7779;49.596;11.070;2023-03-31T08:46:44;6.43;;;3.60;;
15358;SDS011;7779;49.596;11.070;2023-03-31T08:49:13;4.20;;;2.87;;
15358;SDS011;7779;49.596;11.070;2023-03-31T08:51:47;6.17;;;3.40;;
15358;SDS011;7779;49.596;11.070;2023-03-31T08:57:02;9.43;;;4.43;;
15358;SDS011;7779;49.596;11.070;2023-03-31T08:59:35;8.87;;;5.90;;
15358;SDS011;7779;49.596;11.070;2023-03-31T09:05:24;4.83;;;3.80;;
15358;SDS011;7779;49.596;11.070;2023-03-31T09:14:05;4.23;;;2.87;;
15358;SDS011;7779;49.596;11.070;2023-03-31T09:22:34;4.37;;;2.60;;
15358;SDS011;7779;49.596;11.070;2023-03-31T09:25:10;3.70;;;2.50;;
15358;SDS011;7779;49.596;11.070;2023-03-31T09:27:46;4.10;;;2.63;;
15358;SDS011;7779;49.596;11.070;2023-03-31T09:33:05;3.87;;;2.60;;
15358;SDS011;7779;49.596;11.070;2023-03-31T09:35:39;4.40;;;2.57;;
15358;SDS011;7779;49.596;11.070;2023-03-31T09:38:05;3.57;;;2.43;;
15358;SDS011;7779;49.596;11.070;2023-03-31T09:40:31;4.40;;;2.90;;
15358;SDS011;7779;49.596;11.070;2023-03-31T09:42:59;4.80;;;2.60;;
15358;SDS011;7779;49.596;11.070;2023-03-31T09:45:32;2.93;;;2.57;;
15358;SDS011;7779;49.596;11.070;2023-03-31T09:48:00;3.53;;;2.27;;
15358;SDS011;7779;49.596;11.070;2023-03-31T09:50:31;4.57;;;2.40;;
15358;SDS011;7779;49.596;11.070;2023-03-31T09:53:10;3.33;;;2.10;;
15358;SDS011;7779;49.596;11.070;2023-03-31T09:55:50;4.17;;;2.30;;
15358;SDS011;7779;49.596;11.070;2023-03-31T09:58:20;2.60;;;2.00;;
15358;SDS011;7779;49.596;11.070;2023-03-31T10:00:56;3.67;;;2.30;;
15358;SDS011;7779;49.596;11.070;2023-03-31T10:03:28;3.93;;;2.13;;
15358;SDS011;7779;49.596;11.070;2023-03-31T10:06:00;2.77;;;2.00;;
15358;SDS011;7779;49.596;11.070;2023-03-31T10:08:37;4.10;;;2.20;;
15358;SDS011;7779;49.596;11.070;2023-03-31T10:11:12;3.07;;;1.93;;
15358;SDS011;7779;49.596;11.070;2023-03-31T10:16:20;3.43;;;1.83;;
15358;SDS011;7779;49.596;11.070;2023-03-31T10:19:17;2.90;;;1.80;;
15358;SDS011;7779;49.596;11.070;2023-03-31T10:21:56;2.17;;;1.87;;
15358;SDS011;7779;49.596;11.070;2023-03-31T10:24:39;4.67;;;1.90;;
15358;SDS011;7779;49.596;11.070;2023-03-31T10:29:55;4.20;;;3.20;;
15358;SDS011;7779;49.596;11.070;2023-03-31T10:32:24;6.10;;;4.27;;
15358;SDS011;7779;49.596;11.070;2023-03-31T10:34:55;3.70;;;2.50;;
15358;SDS011;7779;49.596;11.070;2023-03-31T10:37:24;3.70;;;2.50;;
15358;SDS011;7779;49.596;11.070;2023-03-31T10:39:56;3.13;;;2.27;;
15358;SDS011;7779;49.596;11.070;2023-03-31T10:42:25;3.27;;;2.20;;
15358;SDS011;7779;49.596;11.070;2023-03-31T10:47:56;2.13;;;1.63;;
15358;SDS011;7779;49.596;11.070;2023-03-31T10:50:31;2.43;;;1.40;;
15358;SDS011;7779;49.596;11.070;2023-03-31T10:53:01;3.17;;;2.00;;
15358;SDS011;7779;49.596;11.070;2023-03-31T11:11:01;3.13;;;1.13;;
15358;SDS011;7779;49.596;11.070;2023-03-31T11:34:23;1.50;;;0.70;;
15358;SDS011;7779;49.596;11.070;2023-03-31T11:39:45;1.23;;;0.80;;
15358;SDS011;7779;49.596;11.070;2023-03-31T11:43:04;1.97;;;0.80;;
15358;SDS011;7779;49.596;11.070;2023-03-31T11:45:36;0.93;;;0.70;;
15358;SDS011;7779;49.596;11.070;2023-03-31T11:51:17;2.27;;;0.80;;
15358;SDS011;7779;49.596;11.070;2023-03-31T11:53:53;1.10;;;0.53;;
15358;SDS011;7779;49.596;11.070;2023-03-31T11:56:30;1.23;;;0.53;;
15358;SDS011;7779;49.596;11.070;2023-03-31T11:59:02;0.93;;;0.50;;
15358;SDS011;7779;49.596;11.070;2023-03-31T12:02:03;1.33;;;0.93;;
15358;SDS011;7779;49.596;11.070;2023-03-31T12:05:00;1.53;;;0.70;;
15358;SDS011;7779;49.596;11.070;2023-03-31T12:07:33;1.00;;;0.40;;
15358;SDS011;7779;49.596;11.070;2023-03-31T12:10:42;2.10;;;0.67;;
15358;SDS011;7779;49.596;11.070;2023-03-31T12:13:22;0.80;;;0.47;;
15358;SDS011;7779;49.596;11.070;2023-03-31T12:16:19;1.00;;;0.40;;
15358;SDS011;7779;49.596;11.070;2023-03-31T12:19:10;0.60;;;0.47;;
15358;SDS011;7779;49.596;11.070;2023-03-31T12:21:57;0.87;;;0.40;;
15358;SDS011;7779;49.596;11.070;2023-03-31T12:24:36;0.60;;;0.30;;
15358;SDS011;7779;49.596;11.070;2023-03-31T12:32:10;0.90;;;0.40;;
15358;SDS011;7779;49.596;11.070;2023-03-31T12:35:11;0.43;;;0.30;;
15358;SDS011;7779;49.596;11.070;2023-03-31T12:37:54;0.53;;;0.30;;
15358;SDS011;7779;49.596;11.070;2023-03-31T12:55:15;0.50;;;0.20;;
15358;SDS011;7779;49.596;11.070;2023-03-31T13:11:37;1.50;;;0.37;;
15358;SDS011;7779;49.596;11.070;2023-03-31T13:17:22;1.77;;;0.40;;
15358;SDS011;7779;49.596;11.070;2023-03-31T13:19:51;1.10;;;0.40;;
15358;SDS011;7779;49.596;11.070;2023-03-31T13:22:39;1.03;;;0.47;;
15358;SDS011;7779;49.596;11.070;2023-03-31T13:25:25;1.00;;;0.50;;
15358;SDS011;7779;49.596;11.070;2023-03-31T13:27:55;1.23;;;0.40;;
15358;SDS011;7779;49.596;11.070;2023-03-31T13:33:03;0.97;;;0.40;;
15358;SDS011;7779;49.596;11.070;2023-03-31T13:35:52;1.53;;;0.80;;
15358;SDS011;7779;49.596;11.070;2023-03-31T13:38:33;1.43;;;0.50;;
15358;SDS011;7779;49.596;11.070;2023-03-31T13:59:25;3.87;;;0.60;;
15358;SDS011;7779;49.596;11.070;2023-03-31T14:02:43;1.83;;;0.60;;
15358;SDS011;7779;49.596;11.070;2023-03-31T14:05:36;1.03;;;0.50;;
15358;SDS011;7779;49.596;11.070;2023-03-31T14:08:11;2.63;;;0.60;;
15358;SDS011;7779;49.596;11.070;2023-03-31T14:10:49;1.80;;;0.53;;
15358;SDS011;7779;49.596;11.070;2023-03-31T14:13:17;0.70;;;0.33;;
15358;SDS011;7779;49.596;11.070;2023-03-31T14:15:48;1.57;;;0.60;;
15358;SDS011;7779;49.596;11.070;2023-03-31T14:18:24;1.80;;;0.30;;
15358;SDS011;7779;49.596;11.070;2023-03-31T14:21:09;0.90;;;0.40;;
15358;SDS011;7779;49.596;11.070;2023-03-31T14:30:13;2.80;;;1.03;;
15358;SDS011;7779;49.596;11.070;2023-03-31T14:33:26;2.27;;;0.93;;
15358;SDS011;7779;49.596;11.070;2023-03-31T14:39:21;4.30;;;0.90;;
15358;SDS011;7779;49.596;11.070;2023-03-31T14:41:58;2.27;;;0.60;;
15358;SDS011;7779;49.596;11.070;2023-03-31T14:44:28;3.37;;;0.70;;
15358;SDS011;7779;49.596;11.070;2023-03-31T14:46:57;0.70;;;0.40;;
15358;SDS011;7779;49.596;11.070;2023-03-31T14:52:04;1.47;;;0.50;;
15358;SDS011;7779;49.596;11.070;2023-03-31T14:54:43;2.87;;;0.50;;
15358;SDS011;7779;49.596;11.070;2023-03-31T14:57:12;1.77;;;0.57;;
15358;SDS011;7779;49.596;11.070;2023-03-31T14:59:44;1.13;;;0.40;;
15358;SDS011;7779;49.596;11.070;2023-03-31T15:02:31;1.27;;;0.40;;
15358;SDS011;7779;49.596;11.070;2023-03-31T15:05:08;0.80;;;0.40;;
15358;SDS011;7779;49.596;11.070;2023-03-31T15:07:49;1.10;;;0.60;;
15358;SDS011;7779;49.596;11.070;2023-03-31T15:10:19;2.10;;;0.60;;
15358;SDS011;7779;49.596;11.070;2023-03-31T15:12:46;1.20;;;0.60;;
15358;SDS011;7779;49.596;11.070;2023-03-31T15:15:14;1.70;;;0.50;;
15358;SDS011;7779;49.596;11.070;2023-03-31T15:17:42;1.47;;;0.40;;
15358;SDS011;7779;49.596;11.070;2023-03-31T15:20:23;2.07;;;0.73;;
15358;SDS011;7779;49.596;11.070;2023-03-31T15:22:59;1.57;;;0.70;;
15358;SDS011;7779;49.596;11.070;2023-03-31T15:25:41;2.23;;;0.50;;
15358;SDS011;7779;49.596;11.070;2023-03-31T15:28:09;1.87;;;0.40;;
15358;SDS011;7779;49.596;11.070;2023-03-31T15:30:40;1.73;;;0.60;;
15358;SDS011;7779;49.596;11.070;2023-03-31T15:33:07;2.30;;;0.50;;
15358;SDS011;7779;49.596;11.070;2023-03-31T15:35:47;2.10;;;0.70;;
15358;SDS011;7779;49.596;11.070;2023-03-31T15:38:13;4.57;;;0.80;;
15358;SDS011;7779;49.596;11.070;2023-03-31T15:40:42;2.40;;;0.90;;
15358;SDS011;7779;49.596;11.070;2023-03-31T15:43:14;3.57;;;0.73;;
15358;SDS011;7779;49.596;11.070;2023-03-31T15:45:53;2.00;;;0.57;;
15358;SDS011;7779;49.596;11.070;2023-03-31T15:53:57;3.27;;;0.83;;
15358;SDS011;7779;49.596;11.070;2023-03-31T15:56:29;2.43;;;0.50;;
15358;SDS011;7779;49.596;11.070;2023-03-31T15:59:22;1.30;;;0.50;;
15358;SDS011;7779;49.596;11.070;2023-03-31T16:01:50;2.17;;;0.87;;
15358;SDS011;7779;49.596;11.070;2023-03-31T16:04:17;2.40;;;0.80;;
15358;SDS011;7779;49.596;11.070;2023-03-31T16:06:44;1.93;;;0.80;;
15358;SDS011;7779;49.596;11.070;2023-03-31T16:09:18;1.50;;;0.80;;
15358;SDS011;7779;49.596;11.070;2023-03-31T16:11:52;2.57;;;1.20;;
15358;SDS011;7779;49.596;11.070;2023-03-31T16:14:27;3.80;;;1.30;;
15358;SDS011;7779;49.596;11.070;2023-03-31T16:17:02;2.30;;;0.83;;
15358;SDS011;7779;49.596;11.070;2023-03-31T16:19:39;1.70;;;0.70;;
15358;SDS011;7779;49.596;11.070;2023-03-31T16:22:20;2.80;;;0.90;;
15358;SDS011;7779;49.596;11.070;2023-03-31T16:24:51;1.73;;;0.83;;
15358;SDS011;7779;49.596;11.070;2023-03-31T16:27:17;2.93;;;0.83;;
15358;SDS011;7779;49.596;11.070;2023-03-31T16:29:43;2.40;;;0.80;;
15358;SDS011;7779;49.596;11.070;2023-03-31T16:32:11;2.50;;;0.77;;
15358;SDS011;7779;49.596;11.070;2023-03-31T16:37:25;1.50;;;0.60;;
15358;SDS011;7779;49.596;11.070;2023-03-31T16:39:51;2.47;;;0.60;;
15358;SDS011;7779;49.596;11.070;2023-03-31T16:42:18;1.87;;;0.60;;
15358;SDS011;7779;49.596;11.070;2023-03-31T16:44:44;2.07;;;1.00;;
15358;SDS011;7779;49.596;11.070;2023-03-31T16:47:13;1.83;;;0.70;;
15358;SDS011;7779;49.596;11.070;2023-03-31T16:49:39;2.83;;;0.83;;
15358;SDS011;7779;49.596;11.070;2023-03-31T16:52:05;2.30;;;0.80;;
15358;SDS011;7779;49.596;11.070;2023-03-31T16:54:33;1.50;;;0.87;;
15358;SDS011;7779;49.596;11.070;2023-03-31T16:56:59;3.60;;;0.70;;
15358;SDS011;7779;49.596;11.070;2023-03-31T16:59:25;2.27;;;0.70;;
15358;SDS011;7779;49.596;11.070;2023-03-31T17:01:51;1.97;;;0.90;;
15358;SDS011;7779;49.596;11.070;2023-03-31T17:04:17;2.17;;;0.83;;
15358;SDS011;7779;49.596;11.070;2023-03-31T17:06:43;2.77;;;0.70;;
15358;SDS011;7779;49.596;11.070;2023-03-31T17:09:09;2.20;;;0.60;;
15358;SDS011;7779;49.596;11.070;2023-03-31T17:11:35;3.60;;;1.20;;
15358;SDS011;7779;49.596;11.070;2023-03-31T17:14:01;2.13;;;0.80;;
15358;SDS011;7779;49.596;11.070;2023-03-31T17:16:29;2.17;;;0.80;;
15358;SDS011;7779;49.596;11.070;2023-03-31T17:18:55;2.40;;;0.60;;
15358;SDS011;7779;49.596;11.070;2023-03-31T17:21:21;0.83;;;0.40;;
15358;SDS011;7779;49.596;11.070;2023-03-31T17:23:48;3.30;;;1.37;;
15358;SDS011;7779;49.596;11.070;2023-03-31T17:26:15;2.87;;;1.30;;
15358;SDS011;7779;49.596;11.070;2023-03-31T17:28:42;3.20;;;1.43;;
15358;SDS011;7779;49.596;11.070;2023-03-31T17:31:11;2.50;;;1.30;;
15358;SDS011;7779;49.596;11.070;2023-03-31T17:33:42;5.13;;;1.77;;
15358;SDS011;7779;49.596;11.070;2023-03-31T17:36:09;2.73;;;1.30;;
15358;SDS011;7779;49.596;11.070;2023-03-31T17:38:36;3.07;;;1.30;;
15358;SDS011;7779;49.596;11.070;2023-03-31T17:41:04;3.60;;;1.13;;
15358;SDS011;7779;49.596;11.070;2023-03-31T17:43:32;5.60;;;1.50;;
15358;SDS011;7779;49.596;11.070;2023-03-31T17:46:08;3.43;;;1.43;;
15358;SDS011;7779;49.596;11.070;2023-03-31T17:48:35;2.90;;;1.37;;
15358;SDS011;7779;49.596;11.070;2023-03-31T17:51:04;2.67;;;1.00;;
15358;SDS011;7779;49.596;11.070;2023-03-31T17:53:42;2.03;;;0.87;;
15358;SDS011;7779;49.596;11.070;2023-03-31T17:56:09;2.60;;;0.90;;
15358;SDS011;7779;49.596;11.070;2023-03-31T17:58:35;2.83;;;1.10;;
15358;SDS011;7779;49.596;11.070;2023-03-31T18:01:05;3.20;;;1.00;;
15358;SDS011;7779;49.596;11.070;2023-03-31T18:03:33;3.13;;;1.13;;
15358;SDS011;7779;49.596;11.070;2023-03-31T18:06:04;1.60;;;0.90;;
15358;SDS011;7779;49.596;11.070;2023-03-31T18:08:32;2.50;;;1.00;;
15358;SDS011;7779;49.596;11.070;2023-03-31T18:10:59;2.40;;;1.10;;
15358;SDS011;7779;49.596;11.070;2023-03-31T18:13:26;2.93;;;1.03;;
15358;SDS011;7779;49.596;11.070;2023-03-31T18:15:53;4.57;;;0.70;;
15358;SDS011;7779;49.596;11.070;2023-03-31T18:18:19;3.53;;;0.80;;
15358;SDS011;7779;49.596;11.070;2023-03-31T18:20:45;1.73;;;0.70;;
15358;SDS011;7779;49.596;11.070;2023-03-31T18:23:11;1.90;;;0.77;;